• Join FlightAware (Why Join?)
  • Login
  • US Flag 
09:08PM EDT


 

Airport Tracker/Info


-or-


 

Live Flight TrackerFlight Track Log ✈ UPS1337 ✈ 27-Mar-2014 ✈ KPIE - KSDF

Flight Track Log - Related Links

Times and Time Zones

All times are in EDT time to prevent confusion due to time zone crossing. See the UPS1337 flight status page for this flight to view local times or setup timezone preferences in your user account.

Time Position Orientation Groundspeed Altitude Reporting Facility
EDT Latitude Longitude Course Direction KTS MPH feet Rate Location/Type
09:42PM 27.9000 -82.6833 180° South 170 196 700  Level Tampa TRACON
09:42PM 27.8667 -82.6833 180° South 186 214 2,300 2,820 Climbing Tampa TRACON
09:43PM 27.8167 -82.7000 196° South 257 296 5,300 3,000 Climbing Tampa TRACON
09:45PM 27.8828 -82.7844 312° West 261 300 10,800 2,400 Climbing Jacksonville Center
09:46PM 27.9767 -82.7892 357° North 269 310 12,000 1,320 Climbing Jacksonville Center
09:47PM 28.0872 -82.7939 358° North 326 375 13,500 2,220 Climbing Jacksonville Center
09:48PM 28.1978 -82.8103 353° North 376 433 16,500 2,640 Climbing Jacksonville Center
09:49PM 28.2981 -82.8642 335° Northwest 384 442 18,800 3,060 Climbing Jacksonville Center
09:50PM 28.4025 -82.9092 339° North 393 452 22,700 2,640 Climbing Jacksonville Center
09:51PM 28.5214 -82.9517 343° North 393 452 24,100 1,560 Climbing Jacksonville Center
09:52PM 28.6361 -82.9942 342° North 400 460 25,900 1,440 Climbing Jacksonville Center
09:52PM 28.6800 -83.0092 342° North 437 503 26,100 480 Climbing FlightAware ADS-B (KMCO)
09:53PM 28.7531 -83.0322 344° North 416 479 26,400 1,020 Climbing Jacksonville Center
09:54PM 28.8803 -83.0681 346° North 444 511 27,800 1,680 Climbing Jacksonville Center
09:55PM 29.0056 -83.1039 346° North 462 532 29,800 1,680 Climbing Jacksonville Center
09:56PM 29.1161 -83.1350 346° North 462 532 31,200 1,080 Climbing Jacksonville Center
09:57PM 29.2411 -83.1711 346° North 462 532 32,000 360 Climbing Jacksonville Center
09:58PM 29.3642 -83.2047 347° North 462 532 32,000 -60 Level Jacksonville Center
09:59PM 29.4894 -83.2386 347° North 456 525 31,900  Descending Jacksonville Center
10:00PM 29.6125 -83.2747 346° North 451 519 32,000  Climbing Jacksonville Center
10:06PM 30.3681 -83.4824 346° North 455 524 32,000  Level FlightAware ADS-B (KTLH)
10:06PM 30.4305 -83.5000 346° North 458 527 32,000  Level FlightAware ADS-B (KTLH)
10:07PM 30.5038 -83.5207 346° North 458 527 32,000  Level FlightAware ADS-B (KTLH)
10:08PM 30.5964 -83.5466 347° North 456 525 32,000  Level FlightAware ADS-B (KTLH)
10:08PM 30.6718 -83.5667 347° North 456 525 32,000  Level FlightAware ADS-B (KTLH)
10:09PM 30.7476 -83.5880 346° North 455 524 32,000  Level FlightAware ADS-B (KTLH)
10:10PM 30.9230 -83.6389 346° North 458 527 32,000  Level FlightAware ADS-B (KTLH)
10:11PM 31.0046 -83.6622 346° North 460 529 32,000  Level FlightAware ADS-B (KTLH)
10:12PM 31.0706 -83.6811 346° North 462 532 32,000  Level FlightAware ADS-B (KTLH)
10:13PM 31.2242 -83.7258 346° North 457 526 32,000  Level Jacksonville Center
10:14PM 31.3450 -83.7611 346° North 451 519 32,000  Level Jacksonville Center
10:16PM 31.6003 -83.8414 345° North 452 520 32,000  Level Atlanta Center
10:17PM 31.7403 -83.8778 348° North 457 526 32,000  Level Atlanta Center
10:18PM 31.8633 -83.9142 346° North 455 524 32,000  Level Atlanta Center
10:19PM 31.9867 -83.9483 347° North 455 524 32,000  Level Atlanta Center
10:20PM 32.1078 -83.9850 346° North 450 518 32,000  Level Atlanta Center
10:21PM 32.2289 -84.0192 347° North 450 518 32,000  Level Atlanta Center
10:22PM 32.3519 -84.0561 346° North 450 518 32,000  Level Atlanta Center
10:23PM 32.4731 -84.0906 347° North 450 518 32,000  Level Atlanta Center
10:24PM 32.5939 -84.1275 346° North 450 518 32,000  Level Atlanta Center
10:25PM 32.7150 -84.1622 346° North 445 512 32,000  Level Atlanta Center
10:26PM 32.8339 -84.1969 346° North 445 512 32,000  Level Atlanta Center
10:27PM 32.9528 -84.2419 342° North 445 512 32,000  Level Atlanta Center
10:28PM 33.0739 -84.2744 347° North 445 512 32,000  Level Atlanta Center
10:29PM 33.1969 -84.3094 347° North 445 512 32,000  Level Atlanta Center
10:30PM 33.3200 -84.3472 346° North 445 512 32,000  Level Atlanta Center
10:31PM 33.4431 -84.3822 347° North 451 519 32,000  Level Atlanta Center
10:32PM 33.5619 -84.4178 346° North 444 511 32,000  Level Atlanta Center
10:37PM 34.2544 -84.5870 348° North 442 509 32,000  Level FlightAware ADS-B (KDZJ)
10:37PM 34.3348 -84.6066 348° North 442 509 32,000  Level FlightAware ADS-B (KDZJ)
10:38PM 34.4186 -84.6271 348° North 441 507 32,000  Level FlightAware ADS-B (KDZJ)
10:39PM 34.4983 -84.6467 348° North 440 506 32,000  Level FlightAware ADS-B (KDZJ)
10:40PM 34.6203 -84.6768 348° North 440 506 32,000  Level FlightAware ADS-B (KDZJ)
10:40PM 34.7026 -84.6971 348° North 441 507 32,000  Level FlightAware ADS-B (KDZJ)
10:41PM 34.7830 -84.7171 348° North 443 510 32,000  Level FlightAware ADS-B (KDZJ)
10:43PM 35.0299 -84.7788 348° North 444 511 32,000  Level FlightAware ADS-B (KDZJ)
10:44PM 35.1049 -84.7975 348° North 459 528 32,000  Level FlightAware ADS-B (KDZJ)
10:47PM 34.4896 -84.6445 348° North 453 521 32,000  Level FlightAware ADS-B (KMDQ)
10:48PM 35.5317 -84.9064 348° North 448 516 32,000  Level Atlanta Center
10:49PM 35.6544 -84.9408 347° North 448 516 32,000  Level Atlanta Center
10:50PM 35.7628 -84.9781 344° North 448 516 32,000  Level Atlanta Center
10:51PM 35.9036 -85.0081 350° North 455 524 32,000 -420 Level Indianapolis Center
10:52PM 36.0431 -85.0397 350° North 458 527 31,200 -1,020 Descending Indianapolis Center
10:58PM 36.6869 -85.0079 North 496 571 25,300 -1,320 Descending FlightAware ADS-B (KBRY)
10:59PM 36.9971 -84.9899 North 475 547 22,200 -2,760 Descending FlightAware ADS-B (KBRY)
11:00PM 37.1361 -84.9818 North 455 524 19,200 -2,580 Descending FlightAware ADS-B (KBRY)
11:02PM 37.3954 -84.9666 North 390 449 13,900 -2,100 Descending FlightAware ADS-B (KBRY)
11:04PM 37.4421 -84.9642 North 376 433 12,200 -1,260 Descending FlightAware ADS-B (KBRY)
11:06PM 37.7021 -85.0155 312° West 338 389 10,100 -720 Descending FlightAware ADS-B (KBRY)
11:07PM 37.7628 -85.1006 312° West 338 389 10,100  Level FlightAware ADS-B (KBRY)
11:08PM 37.8263 -85.1910 304° West 317 365 10,100  Level FlightAware ADS-B (KBRY)
11:09PM 37.8705 -85.2835 302° West 321 369 10,100  Level FlightAware ADS-B (KBRY)
11:09PM 37.9114 -85.3668 302° West 324 373 10,100  Level FlightAware ADS-B
11:11PM 37.9638 -85.4716 304° West 302 348 10,100  Level FlightAware ADS-B
11:11PM 38.0001 -85.5386 305° West 265 305 10,100 -360 Level FlightAware ADS-B
11:12PM 38.0105 -85.5572 305° West 260 299 9,800 -1,380 Descending FlightAware ADS-B
11:12PM 38.0308 -85.5935 306° West 261 300 9,100 -1,680 Descending FlightAware ADS-B (KBRY)
11:12PM 38.0462 -85.6203 306° West 265 305 8,400 -1,500 Descending FlightAware ADS-B
11:13PM 38.0742 -85.6690 306° West 256 295 7,600 -1,320 Descending FlightAware ADS-B (KBRY)
11:14PM 38.1149 -85.7410 306° West 247 284 6,300 -720 Descending FlightAware ADS-B (KBRY)
11:15PM 38.1682 -85.8238 333° Northwest 278 320 6,100 -420 Descending FlightAware ADS-B (KBRY)
11:16PM 38.2373 -85.8517 339° North 261 300 5,400 -1,200 Descending FlightAware ADS-B (KBRY)
11:17PM 38.2688 -85.8673 338° Northwest 267 307 4,300 -1,260 Descending FlightAware ADS-B (KBRY)
11:18PM 38.3439 -85.8910 338° Northwest 267 307 3,600 -720 Descending FlightAware ADS-B (KBRY)
11:19PM 38.3683 -85.8358 338° Northwest 257 296 3,000 -300 Descending Indianapolis Center
11:20PM 38.3358 -85.7964 136° Southeast 195 224 3,000 -180 Level Indianapolis Center
11:21PM 38.2994 -85.7844 166° South 158 182 2,700 -420 Descending Indianapolis Center
11:22PM 38.2619 -85.7750 169° South 142 163 2,200 -660 Descending Indianapolis Center
11:24PM 38.1833 -85.7500 166° South 129 148 600 -720 Descending Louisville TRACON